Time;durP1;ratioP1;P1;durP2;ratioP2;P2;SDS_P1;SDS_P2;PMS_P1;PMS_P2;Temp;Humidity;BMP_temperature;BMP_pressure;BME280_temperature;BME280_humidity;BME280_pressure;Samples;Min_cycle;Max_cycle;Signal;HPM_P1;HPM_P2
2021/10/06 00:01:43;;;;;;;;;;;;;;;-142.75;100.00;76536.84;5039784;28;19928;-78
2021/10/06 00:04:09;;;;;;;;;;;;;;;-142.75;100.00;76544.69;5035439;28;19943;-80
2021/10/06 00:06:34;;;;;;;;;;;;;;;-142.75;100.00;76558.47;5053866;28;19932;-78
2021/10/06 00:08:59;;;;;;;;;;;;;;;-142.75;100.00;76552.56;5045517;28;19917;-79
2021/10/06 00:11:25;;;;;;;;;;;;;;;-142.75;100.00;76542.72;5041833;28;19917;-80
2021/10/06 00:13:50;;;;;;;;;;;;;;;-142.75;100.00;76556.50;5028541;28;19971;-81
2021/10/06 00:16:16;;;;;;;;;;;;;;;-142.75;100.00;76534.84;5036269;28;19916;-79
2021/10/06 00:18:42;;;;;;;;;;;;;;;-142.75;100.00;76534.84;5053832;28;19917;-79
2021/10/06 00:21:07;;;;;;;;;;;;;;;-142.75;100.00;76538.78;5034975;28;19916;-80
2021/10/06 00:23:32;;;;;;;;;;;;;;;-142.75;100.00;76554.53;5035439;28;20290;-80
2021/10/06 00:25:59;;;;;;;;;;;;;;;-142.75;100.00;76525.03;5050856;28;20334;-79
2021/10/06 00:28:24;;;;;;;;;;;;;;;-142.75;100.00;76530.91;5020418;28;20008;-80
2021/10/06 00:30:49;;;;;;;;;;;;;;;-142.75;100.00;76515.19;5051621;28;19982;-79
2021/10/06 00:33:15;;;;;;;;;;;;;;;-142.75;100.00;76503.38;5032246;28;20437;-80
2021/10/06 00:35:40;;;;;;;;;;;;;;;-142.75;100.00;76513.22;5047015;28;19924;-79
2021/10/06 00:38:05;;;;;;;;;;;;;;;-142.75;100.00;76542.72;5020217;28;20034;-81
2021/10/06 00:40:30;;;;;;;;;;;;;;;-142.75;100.00;76566.34;5016402;28;19917;-77
2021/10/06 00:42:55;;;;;;;;;;;;;;;-142.75;100.00;76580.13;5031407;28;19921;-79
2021/10/06 00:45:21;;;;;;;;;;;;;;;-142.75;100.00;76582.09;5033135;28;19921;-78
2021/10/06 00:47:46;;;;;;;;;;;;;;;-142.75;100.00;76593.91;5037488;28;19929;-80
2021/10/06 00:50:11;;;;;;;;;;;;;;;-142.75;100.00;76595.88;5025625;28;19923;-79
2021/10/06 00:52:36;;;;;;;;;;;;;;;-142.75;100.00;76611.63;5052664;28;19967;-80
2021/10/06 00:55:02;;;;;;;;;;;;;;;-142.75;100.00;76609.66;5052986;28;19999;-80
2021/10/06 00:57:27;;;;;;;;;;;;;;;-142.75;100.00;76603.75;5035327;28;20043;-80
2021/10/06 00:59:52;;;;;;;;;;;;;;;-142.75;100.00;76603.75;5049847;28;19916;-79
2021/10/06 01:02:18;;;;;;;;;;;;;;;-142.75;100.00;76601.78;5031213;28;19957;-79
2021/10/06 01:04:43;;;;;;;;;;;;;;;-142.75;100.00;76593.91;5038423;28;19921;-80
2021/10/06 01:07:09;;;;;;;;;;;;;;;-142.75;100.00;76605.72;5054380;28;20352;-81
2021/10/06 01:09:35;;;;;;;;;;;;;;;-142.75;100.00;76601.78;5047497;28;19956;-82
2021/10/06 01:12:01;;;;;;;;;;;;;;;-142.75;100.00;76605.72;5040169;28;19980;-80
2021/10/06 01:14:26;;;;;;;;;;;;;;;-142.75;100.00;76601.78;5042079;28;19955;-79
2021/10/06 01:16:52;;;;;;;;;;;;;;;-142.75;100.00;76605.72;5040558;28;19923;-79
2021/10/06 01:19:24;;;;;;;;;;;;;;;-142.75;100.00;76621.47;5021051;28;19917;-81
2021/10/06 01:21:50;;;;;;;;;;;;;;;-142.75;100.00;76619.50;5026867;28;19917;-79
2021/10/06 01:24:16;;;;;;;;;;;;;;;-142.75;100.00;76625.41;5020404;28;19921;-78
2021/10/06 01:26:41;;;;;;;;;;;;;;;-142.75;100.00;76623.44;5034903;28;19946;-80
2021/10/06 01:29:07;;;;;;;;;;;;;;;-142.75;100.00;76631.31;5029131;28;19917;-78
2021/10/06 01:31:32;;;;;;;;;;;;;;;-142.75;100.00;76643.13;5052888;28;20010;-81
2021/10/06 01:33:57;;;;;;;;;;;;;;;-142.75;100.00;76645.09;5047493;28;19923;-79
2021/10/06 01:36:23;;;;;;;;;;;;;;;-142.75;100.00;76641.16;5027002;28;19931;-81
2021/10/06 01:38:48;;;;;;;;;;;;;;;-142.75;100.00;76645.09;5033033;28;19917;-80
2021/10/06 01:41:13;;;;;;;;;;;;;;;-142.75;100.00;76651.00;5015962;28;19923;-80
2021/10/06 01:43:38;;;;;;;;;;;;;;;-142.75;100.00;76654.94;5036428;28;19944;-79
2021/10/06 01:46:03;;;;;;;;;;;;;;;-142.75;100.00;76658.88;5027848;28;19931;-79
2021/10/06 01:48:29;;;;;;;;;;;;;;;-142.75;100.00;76660.84;5044614;28;20251;-79
2021/10/06 01:50:54;;;;;;;;;;;;;;;-142.75;100.00;76660.84;5020369;28;20294;-79
2021/10/06 01:53:20;;;;;;;;;;;;;;;-142.75;100.00;76670.69;5034940;28;19956;-79
2021/10/06 01:55:45;;;;;;;;;;;;;;;-142.75;100.00;76676.59;5035333;28;20413;-81
2021/10/06 01:58:15;;;;;;;;;;;;;;;-142.75;100.00;76672.66;5034746;28;20337;-81
2021/10/06 02:00:41;;;;;;;;;;;;;;;-142.75;100.00;76678.56;5025981;28;19923;-82
2021/10/06 02:03:06;;;;;;;;;;;;;;;-142.75;100.00;76672.66;5038923;28;19939;-79
2021/10/06 02:05:34;;;;;;;;;;;;;;;-142.75;100.00;76682.50;5024680;28;20434;-80
2021/10/06 02:08:01;;;;;;;;;;;;;;;-142.75;100.00;76692.34;5030163;28;19958;-79
2021/10/06 02:10:26;;;;;;;;;;;;;;;-142.75;100.00;76696.28;5028672;28;20409;-79
2021/10/06 02:12:51;;;;;;;;;;;;;;;-142.75;100.00;76700.22;5052735;28;19955;-80
2021/10/06 02:15:17;;;;;;;;;;;;;;;-142.75;100.00;76702.19;5040757;28;20417;-79
2021/10/06 02:17:42;;;;;;;;;;;;;;;-142.75;100.00;76700.22;5032666;28;20379;-79
2021/10/06 02:20:07;;;;;;;;;;;;;;;-142.75;100.00;76712.03;5015159;28;19917;-80
2021/10/06 02:22:32;;;;;;;;;;;;;;;-142.75;100.00;76717.94;5015585;28;19942;-79
2021/10/06 02:24:58;;;;;;;;;;;;;;;-142.75;100.00;76710.06;5032473;28;19947;-79
2021/10/06 02:27:23;;;;;;;;;;;;;;;-142.75;100.00;76710.06;5021591;28;19917;-79
2021/10/06 02:29:48;;;;;;;;;;;;;;;-142.75;100.00;76708.09;5050913;28;19924;-80
2021/10/06 02:32:13;;;;;;;;;;;;;;;-142.75;100.00;76714.00;5042115;28;20394;-79
2021/10/06 02:34:38;;;;;;;;;;;;;;;-142.75;100.00;76712.03;5045633;28;19920;-80
2021/10/06 02:37:03;;;;;;;;;;;;;;;-142.75;100.00;76704.16;5051261;28;19975;-80
2021/10/06 02:39:29;;;;;;;;;;;;;;;-142.75;100.00;76700.22;5022419;28;19972;-79
2021/10/06 02:41:54;;;;;;;;;;;;;;;-142.75;100.00;76715.97;5051301;28;19920;-79
2021/10/06 02:44:19;;;;;;;;;;;;;;;-142.75;100.00;76715.97;5042572;28;20112;-80
2021/10/06 02:46:44;;;;;;;;;;;;;;;-142.75;100.00;76729.75;5014737;28;19923;-78
2021/10/06 02:49:09;;;;;;;;;;;;;;;-142.75;100.00;76715.97;5033953;28;19928;-79
2021/10/06 02:51:35;;;;;;;;;;;;;;;-142.75;100.00;76715.97;5052890;28;19917;-79
2021/10/06 02:54:00;;;;;;;;;;;;;;;-142.75;100.00;76704.16;5048171;28;19917;-79
2021/10/06 02:56:25;;;;;;;;;;;;;;;-142.75;100.00;76706.13;5035367;28;20012;-79
2021/10/06 02:58:50;;;;;;;;;;;;;;;-142.75;100.00;76704.16;5037940;28;19956;-78
2021/10/06 03:01:16;;;;;;;;;;;;;;;-142.75;100.00;76704.16;5049317;28;19917;-79
2021/10/06 03:03:41;;;;;;;;;;;;;;;-142.75;100.00;76714.00;5052366;28;19917;-80
2021/10/06 03:06:06;;;;;;;;;;;;;;;-142.75;100.00;76723.84;5037160;28;20023;-78
2021/10/06 03:08:32;;;;;;;;;;;;;;;-142.75;100.00;76719.91;5054490;28;19917;-80
2021/10/06 03:10:57;;;;;;;;;;;;;;;-142.75;100.00;76723.84;5053246;28;19917;-80
2021/10/06 03:13:22;;;;;;;;;;;;;;;-142.75;100.00;76725.81;5054688;28;19916;-79
2021/10/06 03:15:47;;;;;;;;;;;;;;;-142.75;100.00;76717.94;5042878;28;19971;-78
2021/10/06 03:18:13;;;;;;;;;;;;;;;-142.75;100.00;76715.97;5028522;28;19917;-78
2021/10/06 03:20:38;;;;;;;;;;;;;;;-142.75;100.00;76723.84;5028486;28;19925;-79
2021/10/06 03:23:04;;;;;;;;;;;;;;;-142.75;100.00;76717.94;5033904;28;19917;-80
2021/10/06 03:25:29;;;;;;;;;;;;;;;-142.75;100.00;76723.84;5015497;28;19965;-77
2021/10/06 03:27:55;;;;;;;;;;;;;;;-142.75;100.00;76733.69;5034315;28;19917;-79
2021/10/06 03:30:20;;;;;;;;;;;;;;;-142.75;100.00;76739.59;5032594;28;19975;-78
2021/10/06 03:32:45;;;;;;;;;;;;;;;-142.75;100.00;76733.69;5033749;28;19947;-79
2021/10/06 03:35:10;;;;;;;;;;;;;;;-142.75;100.00;76731.72;5033362;28;20382;-79
2021/10/06 03:37:37;;;;;;;;;;;;;;;-142.75;100.00;76743.53;5015609;28;19917;-79
2021/10/06 03:40:02;;;;;;;;;;;;;;;-142.75;100.00;76753.38;5032783;28;20379;-78
2021/10/06 03:42:27;;;;;;;;;;;;;;;-142.75;100.00;76749.44;5015572;28;19925;-78
2021/10/06 03:44:52;;;;;;;;;;;;;;;-142.75;100.00;76749.44;5034805;28;20065;-78
2021/10/06 03:47:18;;;;;;;;;;;;;;;-142.75;100.00;76745.50;5054218;28;20007;-78
2021/10/06 03:49:43;;;;;;;;;;;;;;;-142.75;100.00;76755.34;5035415;28;19923;-79
2021/10/06 03:52:08;;;;;;;;;;;;;;;-142.75;100.00;76745.50;5016166;28;19917;-78
2021/10/06 03:54:33;;;;;;;;;;;;;;;-142.75;100.00;76759.28;5031859;28;19956;-79
2021/10/06 03:56:58;;;;;;;;;;;;;;;-142.75;100.00;76753.38;5048848;28;19939;-78
2021/10/06 03:59:23;;;;;;;;;;;;;;;-142.75;100.00;76757.31;5052506;28;20408;-80
2021/10/06 04:01:49;;;;;;;;;;;;;;;-142.75;100.00;76739.59;5035474;28;19917;-79
2021/10/06 04:04:14;;;;;;;;;;;;;;;-142.75;100.00;76735.66;5017165;28;19925;-78
2021/10/06 04:06:39;;;;;;;;;;;;;;;-142.75;100.00;76747.47;5032935;28;19917;-79
2021/10/06 04:09:05;;;;;;;;;;;;;;;-142.75;100.00;76743.53;5021379;28;19917;-81
2021/10/06 04:11:30;;;;;;;;;;;;;;;-142.75;100.00;76733.69;5047528;28;19940;-80
2021/10/06 04:13:55;;;;;;;;;;;;;;;-142.75;100.00;76729.75;5033584;28;19917;-80
2021/10/06 04:16:21;;;;;;;;;;;;;;;-142.75;100.00;76721.88;5016466;28;19924;-82
2021/10/06 04:18:46;;;;;;;;;;;;;;;-142.75;100.00;76706.13;5037013;28;20371;-81
2021/10/06 04:21:13;;;;;;;;;;;;;;;-142.75;100.00;76700.22;5072573;22;20385;-86
2021/10/06 04:23:39;;;;;;;;;;;;;;;-142.75;100.00;76696.28;5093671;28;19953;-85
2021/10/06 04:26:07;;;;;;;;;;;;;;;-142.75;100.00;76700.22;5087271;28;20293;-85
2021/10/06 04:28:38;;;;;;;;;;;;;;;-142.75;100.00;76702.19;5096690;28;19924;-85
2021/10/06 04:31:04;;;;;;;;;;;;;;;-142.75;100.00;76692.34;5094920;28;20045;-82
2021/10/06 04:33:53;;;;;;;;;;;;;;;-142.75;100.00;76690.38;5094555;28;20345;-84
2021/10/06 04:36:17;;;;;;;;;;;;;;;-142.75;100.00;76688.41;5094202;28;19916;-84
2021/10/06 04:38:43;;;;;;;;;;;;;;;-142.75;100.00;76696.28;5094870;28;20034;-86
2021/10/06 04:41:11;;;;;;;;;;;;;;;-142.75;100.00;76698.25;5085187;28;19983;-86
2021/10/06 04:43:37;;;;;;;;;;;;;;;-142.75;100.00;76696.28;5096353;28;19959;-85
2021/10/06 04:46:02;;;;;;;;;;;;;;;-142.75;100.00;76690.38;5084710;28;19920;-84
2021/10/06 04:48:27;;;;;;;;;;;;;;;-142.75;100.00;76680.53;5090636;28;20361;-86
2021/10/06 04:50:52;;;;;;;;;;;;;;;-142.75;100.00;76676.59;5089917;28;20019;-86
2021/10/06 04:53:20;;;;;;;;;;;;;;;-142.75;100.00;76676.59;5095477;28;20066;-85
2021/10/06 04:55:45;;;;;;;;;;;;;;;-142.75;100.00;76666.75;5094752;28;19923;-85
2021/10/06 04:58:11;;;;;;;;;;;;;;;-142.75;100.00;76670.69;5094692;28;19935;-83
2021/10/06 05:00:36;;;;;;;;;;;;;;;-142.75;100.00;76668.72;5094976;28;19923;-84
2021/10/06 05:03:08;;;;;;;;;;;;;;;-142.75;100.00;76660.84;5094847;28;20006;-85
2021/10/06 05:05:33;;;;;;;;;;;;;;;-142.75;100.00;76674.63;5083681;28;19921;-85
2021/10/06 05:07:58;;;;;;;;;;;;;;;-142.75;100.00;76664.78;5095493;28;19922;-83
2021/10/06 05:10:24;;;;;;;;;;;;;;;-142.75;100.00;76658.88;5081818;28;19942;-84
2021/10/06 05:12:49;;;;;;;;;;;;;;;-142.75;100.00;76654.94;5094987;28;19967;-85
2021/10/06 05:15:14;;;;;;;;;;;;;;;-142.75;100.00;76652.97;5094791;28;20279;-81
2021/10/06 05:17:39;;;;;;;;;;;;;;;-142.75;100.00;76652.97;5095621;28;19920;-83
2021/10/06 05:20:05;;;;;;;;;;;;;;;-142.75;100.00;76649.03;5094793;28;19916;-84
2021/10/06 05:22:30;;;;;;;;;;;;;;;-142.75;100.00;76654.94;5079475;28;19975;-84
2021/10/06 05:24:55;;;;;;;;;;;;;;;-142.75;100.00;76645.09;5087611;28;20293;-83
2021/10/06 05:27:20;;;;;;;;;;;;;;;-142.75;100.00;76647.06;5083189;28;20002;-82
2021/10/06 05:29:45;;;;;;;;;;;;;;;-142.75;100.00;76643.13;5093949;28;19924;-83
2021/10/06 05:32:11;;;;;;;;;;;;;;;-142.75;100.00;76635.25;5094641;28;19920;-86
2021/10/06 05:34:36;;;;;;;;;;;;;;;-142.75;100.00;76639.19;5084041;28;19923;-84
2021/10/06 05:37:01;;;;;;;;;;;;;;;-142.75;100.00;76635.25;5094805;28;19948;-84
2021/10/06 05:39:26;;;;;;;;;;;;;;;-142.75;100.00;76645.09;5094420;28;19923;-83
2021/10/06 05:41:51;;;;;;;;;;;;;;;-142.75;100.00;76649.03;5083012;28;20320;-83
2021/10/06 05:44:16;;;;;;;;;;;;;;;-142.75;100.00;76645.09;5094519;28;19920;-84
2021/10/06 05:46:42;;;;;;;;;;;;;;;-142.75;100.00;76651.00;5084804;28;19916;-81
2021/10/06 05:49:07;;;;;;;;;;;;;;;-142.75;100.00;76649.03;5079415;28;20049;-84
2021/10/06 05:51:32;;;;;;;;;;;;;;;-142.75;100.00;76649.03;5095304;28;19916;-83
2021/10/06 05:53:58;;;;;;;;;;;;;;;-142.75;100.00;76652.97;5094884;28;19916;-84
2021/10/06 05:56:23;;;;;;;;;;;;;;;-142.75;100.00;76662.81;5086034;28;19952;-84
2021/10/06 05:58:48;;;;;;;;;;;;;;;-142.75;100.00;76658.88;5093985;28;19956;-82
2021/10/06 06:01:13;;;;;;;;;;;;;;;-142.75;100.00;76658.88;5094923;28;20444;-86
2021/10/06 06:03:38;;;;;;;;;;;;;;;-142.75;100.00;76664.78;5085019;28;19999;-82
2021/10/06 06:06:03;;;;;;;;;;;;;;;-142.75;100.00;76670.69;5087694;28;20063;-84
2021/10/06 06:08:29;;;;;;;;;;;;;;;-142.75;100.00;76662.81;5082405;28;19969;-83
2021/10/06 06:10:54;;;;;;;;;;;;;;;-142.75;100.00;76672.66;5096332;28;19916;-83
2021/10/06 06:13:19;;;;;;;;;;;;;;;-142.75;100.00;76686.44;5089427;28;19920;-83
2021/10/06 06:15:46;;;;;;;;;;;;;;;-142.75;100.00;76692.34;5094266;28;19959;-84
2021/10/06 06:18:11;;;;;;;;;;;;;;;-142.75;100.00;76692.34;5092961;28;19916;-85
2021/10/06 06:20:36;;;;;;;;;;;;;;;-142.75;100.00;76694.31;5095445;28;19923;-83
2021/10/06 06:23:01;;;;;;;;;;;;;;;-142.75;100.00;76694.31;5094123;28;19916;-84
2021/10/06 06:25:27;;;;;;;;;;;;;;;-142.75;100.00;76684.47;5085698;28;19951;-84
2021/10/06 06:27:52;;;;;;;;;;;;;;;-142.75;100.00;76682.50;5084272;28;19919;-83
2021/10/06 06:30:17;;;;;;;;;;;;;;;-142.75;100.00;76690.38;5098621;28;19917;-84
2021/10/06 06:32:42;;;;;;;;;;;;;;;-142.75;100.00;76688.41;5098039;28;19923;-83
2021/10/06 06:35:08;;;;;;;;;;;;;;;-142.75;100.00;76686.44;5089661;28;20644;-84
2021/10/06 06:37:33;;;;;;;;;;;;;;;-142.75;100.00;76692.34;5091057;28;19916;-79
2021/10/06 06:39:58;;;;;;;;;;;;;;;-142.75;100.00;76684.47;5098720;28;20280;-83
2021/10/06 06:42:23;;;;;;;;;;;;;;;-142.75;100.00;76682.50;5083955;28;19916;-83
2021/10/06 06:44:48;;;;;;;;;;;;;;;-142.75;100.00;76688.41;5086999;28;19935;-81
2021/10/06 06:47:14;;;;;;;;;;;;;;;-142.75;100.00;76688.41;5093754;28;20011;-83
2021/10/06 06:49:39;;;;;;;;;;;;;;;-142.75;100.00;76684.47;5087014;28;20365;-84
2021/10/06 06:52:04;;;;;;;;;;;;;;;-142.75;100.00;76676.59;5098940;28;19962;-84
2021/10/06 06:54:30;;;;;;;;;;;;;;;-142.75;100.00;76672.66;5097341;28;19973;-83
2021/10/06 06:56:55;;;;;;;;;;;;;;;-142.75;100.00;76672.66;5090088;28;19916;-84
2021/10/06 06:59:20;;;;;;;;;;;;;;;-142.75;100.00;76672.66;5091695;28;19969;-81
2021/10/06 07:01:45;;;;;;;;;;;;;;;-142.75;100.00;76666.75;5096543;28;19916;-83
2021/10/06 07:04:11;;;;;;;;;;;;;;;-142.75;100.00;76645.09;5087299;28;20305;-81
2021/10/06 07:06:36;;;;;;;;;;;;;;;-142.75;100.00;76629.34;5097668;28;19923;-82
2021/10/06 07:09:02;;;;;;;;;;;;;;;-142.75;100.00;76629.34;5085053;28;19965;-82
2021/10/06 07:11:27;;;;;;;;;;;;;;;-142.75;100.00;76627.38;5096428;28;19922;-83
2021/10/06 07:13:53;;;;;;;;;;;;;;;-142.75;100.00;76637.22;5088483;28;19983;-82
2021/10/06 07:16:18;;;;;;;;;;;;;;;-142.75;100.00;76651.00;5086968;28;19916;-83
2021/10/06 07:18:43;;;;;;;;;;;;;;;-142.75;100.00;76652.97;5090925;28;19916;-85
2021/10/06 07:21:09;;;;;;;;;;;;;;;-142.75;100.00;76680.53;5089656;28;19916;-83
2021/10/06 07:23:34;;;;;;;;;;;;;;;-142.75;100.00;76692.34;5085150;28;20321;-85
2021/10/06 07:25:59;;;;;;;;;;;;;;;-142.75;100.00;76700.22;5083907;28;19924;-85
2021/10/06 07:28:24;;;;;;;;;;;;;;;-142.75;100.00;76710.06;5097841;28;19900;-85
2021/10/06 07:30:50;;;;;;;;;;;;;;;-142.75;100.00;76729.75;5087913;28;19916;-80
2021/10/06 07:33:15;;;;;;;;;;;;;;;-142.75;100.00;76729.75;5088477;28;20324;-83
2021/10/06 07:35:40;;;;;;;;;;;;;;;-142.75;100.00;76723.84;5097442;28;19916;-82
2021/10/06 07:38:05;;;;;;;;;;;;;;;-142.75;100.00;76735.66;5091413;28;19973;-81
2021/10/06 07:40:31;;;;;;;;;;;;;;;-142.75;100.00;76737.63;5092610;28;19916;-83
2021/10/06 07:42:56;;;;;;;;;;;;;;;-142.75;100.00;76739.59;5092411;28;19931;-79
2021/10/06 07:45:21;;;;;;;;;;;;;;;-142.75;100.00;76737.63;5097085;28;19927;-83
2021/10/06 07:47:46;;;;;;;;;;;;;;;-142.75;100.00;76759.28;5089339;28;19970;-82
2021/10/06 07:50:11;;;;;;;;;;;;;;;-142.75;100.00;76757.31;5086704;28;19920;-81
2021/10/06 07:52:37;;;;;;;;;;;;;;;-142.75;100.00;76747.47;5081455;28;21461;-84
2021/10/06 07:55:05;;;;;;;;;;;;;;;-142.75;100.00;76753.38;5097127;28;20003;-83
2021/10/06 07:57:30;;;;;;;;;;;;;;;-142.75;100.00;76751.41;5096761;28;19920;-85
2021/10/06 07:59:55;;;;;;;;;;;;;;;-142.75;100.00;76749.44;5091435;28;19977;-83
2021/10/06 08:02:20;;;;;;;;;;;;;;;-142.75;100.00;76765.19;5079726;28;20022;-80
2021/10/06 08:04:46;;;;;;;;;;;;;;;-142.75;100.00;76755.34;5096219;28;20018;-82
2021/10/06 08:07:11;;;;;;;;;;;;;;;-142.75;100.00;76747.47;5096963;28;19927;-84
2021/10/06 08:09:36;;;;;;;;;;;;;;;-142.75;100.00;76755.34;5096604;28;19923;-82
2021/10/06 08:12:01;;;;;;;;;;;;;;;-142.75;100.00;76755.34;5077733;28;19916;-81
2021/10/06 08:14:27;;;;;;;;;;;;;;;-142.75;100.00;76759.28;5089471;28;19916;-81
2021/10/06 08:16:52;;;;;;;;;;;;;;;-142.75;100.00;76743.53;5094556;28;20014;-81
2021/10/06 08:19:35;;;;;;;;;;;;;;;-142.75;100.00;76749.44;5089532;28;19960;-81
2021/10/06 08:22:00;;;;;;;;;;;;;;;-142.75;100.00;76759.28;5096662;28;19920;-82
2021/10/06 08:24:25;;;;;;;;;;;;;;;-142.75;100.00;76755.34;5096992;28;19927;-81
2021/10/06 08:26:51;;;;;;;;;;;;;;;-142.75;100.00;76757.31;5090424;28;19984;-81
2021/10/06 08:29:19;;;;;;;;;;;;;;;-142.75;100.00;76765.19;5085146;28;19916;-79
2021/10/06 08:31:47;;;;;;;;;;;;;;;-142.75;100.00;76773.06;5084325;28;19979;-83
2021/10/06 08:34:13;;;;;;;;;;;;;;;-142.75;100.00;76771.09;5085163;28;19911;-82
2021/10/06 08:36:38;;;;;;;;;;;;;;;-142.75;100.00;76778.97;5094123;28;19916;-85
2021/10/06 08:39:04;;;;;;;;;;;;;;;-142.75;100.00;76775.03;5093450;28;19912;-83
2021/10/06 08:41:37;;;;;;;;;;;;;;;-142.75;100.00;76771.09;5089504;28;20372;-80
2021/10/06 08:44:05;;;;;;;;;;;;;;;-142.75;100.00;76780.94;5084652;28;19959;-81
2021/10/06 08:46:31;;;;;;;;;;;;;;;-142.75;100.00;76777.00;5085297;28;20292;-81
2021/10/06 08:48:56;;;;;;;;;;;;;;;-142.75;100.00;76790.78;5091741;28;19918;-82
2021/10/06 08:51:22;;;;;;;;;;;;;;;-142.75;100.00;76788.81;5085745;28;19912;-83
2021/10/06 08:53:48;;;;;;;;;;;;;;;-142.75;100.00;76788.81;5086072;28;19918;-83
2021/10/06 08:56:13;;;;;;;;;;;;;;;-142.75;100.00;76778.97;5096042;28;19919;-83
2021/10/06 08:58:39;;;;;;;;;;;;;;;-142.75;100.00;76763.22;5086259;28;20529;-80
2021/10/06 09:01:04;;;;;;;;;;;;;;;-142.75;100.00;76773.06;5088537;28;20373;-81
2021/10/06 09:03:30;;;;;;;;;;;;;;;-142.75;100.00;76761.25;5097507;28;19938;-82
2021/10/06 09:06:02;;;;;;;;;;;;;;;-142.75;100.00;76757.31;5085288;28;19916;-80
2021/10/06 09:08:27;;;;;;;;;;;;;;;-142.75;100.00;76759.28;5084659;28;19923;-81
2021/10/06 09:10:52;;;;;;;;;;;;;;;-142.75;100.00;76745.50;5088257;28;19955;-82
2021/10/06 09:13:23;;;;;;;;;;;;;;;-142.75;100.00;76731.72;5094400;28;19912;-82
2021/10/06 09:15:49;;;;;;;;;;;;;;;-142.75;100.00;76715.97;5089151;28;19916;-84
2021/10/06 09:18:21;;;;;;;;;;;;;;;-142.75;100.00;76710.06;5090203;28;20258;-81
2021/10/06 09:20:47;;;;;;;;;;;;;;;-142.75;100.00;76708.09;5096680;28;20044;-81
2021/10/06 09:23:15;;;;;;;;;;;;;;;-142.75;100.00;76708.09;5094341;28;19912;-81
2021/10/06 09:25:56;;;;;;;;;;;;;;;-142.75;100.00;76714.00;5087083;28;19928;-81
2021/10/06 09:28:24;;;;;;;;;;;;;;;-142.75;100.00;76719.91;5094280;28;19916;-80
2021/10/06 09:30:53;;;;;;;;;;;;;;;-142.75;100.00;76725.81;5095067;28;20379;-79
2021/10/06 09:33:18;;;;;;;;;;;;;;;-142.75;100.00;76731.72;5085721;28;20006;-82
2021/10/06 09:35:44;;;;;;;;;;;;;;;-142.75;100.00;76739.59;5095836;28;19970;-83
2021/10/06 09:38:09;;;;;;;;;;;;;;;-142.75;100.00;76745.50;5095129;28;20000;-84
2021/10/06 09:40:34;;;;;;;;;;;;;;;-142.75;100.00;76739.59;5095024;28;19952;-81
2021/10/06 09:43:00;;;;;;;;;;;;;;;-142.75;100.00;76706.13;5085179;28;19923;-81
2021/10/06 09:45:29;;;;;;;;;;;;;;;-142.75;100.00;76698.25;5089231;28;19920;-83
2021/10/06 09:48:01;;;;;;;;;;;;;;;-142.75;100.00;76654.94;5083383;28;19961;-81
2021/10/06 09:50:27;;;;;;;;;;;;;;;-142.75;100.00;76633.28;5079696;28;19931;-81
2021/10/06 09:52:52;;;;;;;;;;;;;;;-142.75;100.00;76621.47;5078936;28;19917;-82
2021/10/06 09:55:18;;;;;;;;;;;;;;;-142.75;100.00;76607.69;5082844;28;19919;-81
2021/10/06 09:57:44;;;;;;;;;;;;;;;-142.75;100.00;76613.59;5095368;28;19923;-81
2021/10/06 10:00:18;;;;;;;;;;;;;;;-142.75;100.00;76615.56;5084807;28;20362;-82
2021/10/06 10:02:44;;;;;;;;;;;;;;;-142.75;100.00;76613.59;5091972;28;20353;-81
2021/10/06 10:05:09;;;;;;;;;;;;;;;-142.75;100.00;76589.97;5086812;28;20046;-82
2021/10/06 10:07:34;;;;;;;;;;;;;;;-142.75;100.00;76491.56;5093342;28;20251;-80
2021/10/06 10:10:00;;;;;;;;;;;;;;;-142.75;100.00;76440.38;5085252;28;19920;-81
2021/10/06 10:12:26;;;;;;;;;;;;;;;-142.75;100.00;76420.69;5087486;28;19970;-82
2021/10/06 10:14:52;;;;;;;;;;;;;;;-142.75;100.00;76385.25;5094917;28;19956;-83
2021/10/06 10:17:18;;;;;;;;;;;;;;;-142.75;100.00;76373.44;5097225;28;19931;-85
2021/10/06 10:19:43;;;;;;;;;;;;;;;-142.75;99.33;76399.03;5096422;28;19938;-81
2021/10/06 10:22:09;;;;;;;;;;;;;;;-142.75;100.00;76381.31;5096903;28;19923;-81
2021/10/06 10:24:48;;;;;;;;;;;;;;;-142.75;100.00;76385.25;5095729;28;20365;-80
2021/10/06 10:27:14;;;;;;;;;;;;;;;-142.75;97.21;76446.28;5085976;28;19962;-83
2021/10/06 10:29:42;;;;;;;;;;;;;;;-142.75;100.00;76473.84;5095594;28;20261;-81
2021/10/06 10:32:09;;;;;;;;;;;;;;;-142.75;100.00;76375.41;5096861;28;20308;-82
2021/10/06 10:34:53;;;;;;;;;;;;;;;-142.75;97.49;76381.31;5089068;28;20273;-79
2021/10/06 10:37:20;;;;;;;;;;;;;;;-142.75;98.35;76316.38;5097720;28;20049;-81
2021/10/06 10:39:48;;;;;;;;;;;;;;;-142.75;92.62;76349.81;5094591;28;19919;-81
2021/10/06 10:42:13;;;;;;;;;;;;;;;-142.75;94.46;76440.38;5086444;28;19955;-81
2021/10/06 10:44:40;;;;;;;;;;;;;;;-142.75;100.00;76511.25;5096355;28;20342;-81
2021/10/06 10:47:06;;;;;;;;;;;;;;;-142.75;100.00;76554.53;5079110;28;19920;-83
2021/10/06 10:49:41;;;;;;;;;;;;;;;-142.75;100.00;76597.84;5084617;28;19912;-84
2021/10/06 10:52:10;;;;;;;;;;;;;;;-142.75;100.00;76637.22;5082455;28;19912;-85
2021/10/06 10:54:38;;;;;;;;;;;;;;;-142.75;100.00;76658.88;5083920;28;19924;-82
2021/10/06 10:57:05;;;;;;;;;;;;;;;-142.75;100.00;76652.97;5083184;28;19912;-84
2021/10/06 10:59:39;;;;;;;;;;;;;;;-142.75;100.00;76660.84;5095476;28;20023;-85
2021/10/06 11:02:13;;;;;;;;;;;;;;;-142.75;100.00;76664.78;5095874;28;19967;-83
2021/10/06 11:04:43;;;;;;;;;;;;;;;-142.75;100.00;76672.66;5078699;28;19924;-83
2021/10/06 11:07:17;;;;;;;;;;;;;;;-142.75;100.00;76649.03;5096754;28;20002;-83
2021/10/06 11:09:53;;;;;;;;;;;;;;;-142.75;100.00;76527.00;5082772;28;19912;-85
2021/10/06 11:12:18;;;;;;;;;;;;;;;-142.75;100.00;76416.75;5094830;28;20278;-85
2021/10/06 11:14:44;;;;;;;;;;;;;;;-142.75;100.00;76349.81;5087210;28;20019;-83
2021/10/06 11:17:11;;;;;;;;;;;;;;;-142.75;100.00;76343.94;5094993;28;19955;-85
2021/10/06 11:19:37;;;;;;;;;;;;;;;-142.75;100.00;76363.59;5087944;28;20026;-84
2021/10/06 11:22:22;;;;;;;;;;;;;;;-142.75;100.00;76426.59;5096523;28;20339;-84
2021/10/06 11:24:58;;;;;;;;;;;;;;;-142.75;100.00;76446.28;5090894;28;19919;-85
2021/10/06 11:27:24;;;;;;;;;;;;;;;-142.75;100.00;76485.66;5090338;28;20361;-85
2021/10/06 11:29:50;;;;;;;;;;;;;;;-142.75;100.00;76525.03;5087110;28;19923;-85
2021/10/06 11:32:16;;;;;;;;;;;;;;;-142.75;100.00;76576.19;5093677;28;19981;-83
2021/10/06 11:34:44;;;;;;;;;;;;;;;-142.75;100.00;76625.41;5086603;28;19912;-84
2021/10/06 11:37:13;;;;;;;;;;;;;;;-142.75;100.00;76676.59;5080389;28;19928;-83
2021/10/06 11:39:39;;;;;;;;;;;;;;;-142.75;100.00;76708.09;5079447;28;20006;-88
2021/10/06 11:42:04;;;;;;;;;;;;;;;-142.75;100.00;76714.00;5085333;28;20031;-86
2021/10/06 11:44:30;;;;;;;;;;;;;;;-142.75;100.00;76723.84;5094235;28;19931;-87
2021/10/06 11:46:57;;;;;;;;;;;;;;;-142.75;100.00;76755.34;5094205;28;19919;-85
2021/10/06 11:49:22;;;;;;;;;;;;;;;-142.75;100.00;76777.00;5083616;28;20002;-85
2021/10/06 11:51:53;;;;;;;;;;;;;;;-142.75;100.00;76771.09;5087566;28;19998;-83
2021/10/06 11:54:34;;;;;;;;;;;;;;;-142.75;100.00;76775.03;5084957;28;19955;-84
2021/10/06 11:57:00;;;;;;;;;;;;;;;-142.75;100.00;76798.66;5078136;28;19912;-84
2021/10/06 11:59:33;;;;;;;;;;;;;;;-142.75;100.00;76806.50;5088069;28;19919;-89
2021/10/06 12:02:08;;;;;;;;;;;;;;;-142.75;100.00;76822.25;5094895;28;19917;-82
2021/10/06 12:04:36;;;;;;;;;;;;;;;-142.75;100.00;76830.13;5090271;28;19916;-87
2021/10/06 12:07:06;;;;;;;;;;;;;;;-142.75;100.00;76843.91;5076531;28;19923;-85
2021/10/06 12:09:35;;;;;;;;;;;;;;;-142.75;100.00;76871.47;5094804;28;19948;-88
2021/10/06 12:12:01;;;;;;;;;;;;;;;-142.75;100.00;76875.41;5084818;28;20424;-82
2021/10/06 12:14:32;;;;;;;;;;;;;;;-142.75;100.00;76910.84;5092547;28;19951;-84